Time;durP1;ratioP1;P1;durP2;ratioP2;P2;SDS_P1;SDS_P2;PMS_P1;PMS_P2;Temp;Humidity;BMP_temperature;BMP_pressure;BME280_temperature;BME280_humidity;BME280_pressure;Samples;Min_cycle;Max_cycle;Signal;HPM_P1;HPM_P2
2024/02/04 00:01:38;;;;;;;9.93;4.65;;;;;;;;;;4997661;28;20509;-69
2024/02/04 00:04:03;;;;;;;3.25;1.85;;;;;;;;;;5004058;28;20053;-69
2024/02/04 00:06:29;;;;;;;5.03;3.47;;;;;;;;;;5000644;28;20066;-69
2024/02/04 00:08:55;;;;;;;8.43;4.28;;;;;;;;;;4999190;28;20046;-69
2024/02/04 00:11:20;;;;;;;4.33;2.70;;;;;;;;;;5004081;28;20022;-69
2024/02/04 00:13:45;;;;;;;7.15;4.55;;;;;;;;;;5003766;28;20261;-69
2024/02/04 00:16:11;;;;;;;7.82;4.65;;;;;;;;;;5000924;28;20522;-69
2024/02/04 00:18:36;;;;;;;2.67;1.27;;;;;;;;;;5001595;28;20053;-69
2024/02/04 00:21:01;;;;;;;1.95;0.70;;;;;;;;;;5002115;28;20029;-69
2024/02/04 00:23:26;;;;;;;1.67;0.70;;;;;;;;;;5003695;28;20037;-69
2024/02/04 00:25:51;;;;;;;3.08;0.68;;;;;;;;;;4997595;28;20332;-69
2024/02/04 00:28:18;;;;;;;0.67;0.67;;;;;;;;;;5002963;28;20028;-69
2024/02/04 00:30:43;;;;;;;2.28;0.70;;;;;;;;;;5009682;28;20249;-69
2024/02/04 00:33:09;;;;;;;1.63;0.98;;;;;;;;;;5004307;28;20033;-69
2024/02/04 00:35:34;;;;;;;1.80;1.07;;;;;;;;;;5002547;28;20084;-69
2024/02/04 00:37:59;;;;;;;1.57;1.23;;;;;;;;;;5010622;28;20261;-69
2024/02/04 00:40:26;;;;;;;2.92;2.22;;;;;;;;;;5003823;28;20269;-69
2024/02/04 00:42:51;;;;;;;4.00;2.47;;;;;;;;;;5003371;28;20495;-69
2024/02/04 00:45:16;;;;;;;3.47;2.03;;;;;;;;;;5010162;28;20026;-69
2024/02/04 00:47:42;;;;;;;4.93;2.83;;;;;;;;;;4997622;28;20252;-69
2024/02/04 00:50:07;;;;;;;5.97;2.90;;;;;;;;;;5007471;28;20396;-69
2024/02/04 00:52:32;;;;;;;2.95;1.67;;;;;;;;;;5008851;28;20356;-69
2024/02/04 00:54:57;;;;;;;3.93;2.73;;;;;;;;;;5003530;28;20026;-69
2024/02/04 00:57:23;;;;;;;4.93;2.17;;;;;;;;;;5010309;28;20775;-69
2024/02/04 00:59:50;;;;;;;5.57;2.77;;;;;;;;;;5010395;28;20284;-69
2024/02/04 01:02:15;;;;;;;7.15;3.10;;;;;;;;;;5003678;28;20340;-69
2024/02/04 01:04:40;;;;;;;6.80;3.65;;;;;;;;;;5003427;28;20564;-69
2024/02/04 01:07:05;;;;;;;3.37;2.03;;;;;;;;;;5003770;28;20030;-69
2024/02/04 01:09:30;;;;;;;9.17;4.30;;;;;;;;;;5002589;28;20775;-69
2024/02/04 01:11:56;;;;;;;3.30;1.37;;;;;;;;;;4998312;28;20343;-69
2024/02/04 01:14:21;;;;;;;4.30;2.75;;;;;;;;;;5002972;28;20257;-69
2024/02/04 01:16:46;;;;;;;4.07;2.58;;;;;;;;;;4997204;28;20026;-69
2024/02/04 01:19:11;;;;;;;12.03;5.60;;;;;;;;;;4997500;28;20034;-69
2024/02/04 01:21:36;;;;;;;18.17;3.97;;;;;;;;;;5006812;28;20269;-69
2024/02/04 01:24:02;;;;;;;9.02;3.92;;;;;;;;;;5009487;28;20409;-69
2024/02/04 01:26:27;;;;;;;9.98;4.22;;;;;;;;;;5008072;28;20384;-69
2024/02/04 01:28:52;;;;;;;7.37;3.80;;;;;;;;;;4999546;28;20053;-69
2024/02/04 01:31:18;;;;;;;14.90;5.47;;;;;;;;;;5001050;28;20276;-69
2024/02/04 01:33:43;;;;;;;7.63;2.00;;;;;;;;;;4994374;28;20311;-69
2024/02/04 01:36:08;;;;;;;9.55;3.85;;;;;;;;;;5005847;28;20049;-69
2024/02/04 01:38:33;;;;;;;6.10;3.70;;;;;;;;;;5006506;28;20389;-69
2024/02/04 01:40:58;;;;;;;5.20;2.58;;;;;;;;;;5006915;28;20364;-69
2024/02/04 01:43:24;;;;;;;4.37;2.47;;;;;;;;;;5002214;28;20022;-69
2024/02/04 01:45:50;;;;;;;5.75;3.20;;;;;;;;;;5009125;28;20343;-69
2024/02/04 01:48:15;;;;;;;4.72;2.97;;;;;;;;;;5003155;28;20021;-69
2024/02/04 01:50:41;;;;;;;3.88;1.70;;;;;;;;;;5002722;28;20469;-69
2024/02/04 01:53:06;;;;;;;4.60;2.20;;;;;;;;;;5003169;28;20033;-69
2024/02/04 01:55:31;;;;;;;3.90;2.35;;;;;;;;;;5007142;28;20481;-69
2024/02/04 01:57:56;;;;;;;8.10;2.93;;;;;;;;;;5004204;28;20037;-69
2024/02/04 02:00:21;;;;;;;3.97;3.00;;;;;;;;;;5003209;28;20362;-69
2024/02/04 02:02:48;;;;;;;7.57;4.60;;;;;;;;;;5002570;28;20392;-69
2024/02/04 02:05:13;;;;;;;5.63;2.08;;;;;;;;;;4996510;28;20482;-69
2024/02/04 02:07:39;;;;;;;6.97;3.40;;;;;;;;;;5004712;28;20033;-69
2024/02/04 02:10:07;;;;;;;7.53;4.00;;;;;;;;;;4999955;28;20408;-69
2024/02/04 02:12:39;;;;;;;4.15;2.53;;;;;;;;;;5008818;28;20036;-69
2024/02/04 02:15:11;;;;;;;8.07;3.75;;;;;;;;;;5008831;28;20024;-68
2024/02/04 02:17:49;;;;;;;4.35;2.40;;;;;;;;;;5005104;28;20405;-69
2024/02/04 02:20:21;;;;;;;8.60;4.45;;;;;;;;;;4993569;28;20050;-68
2024/02/04 02:22:51;;;;;;;13.38;6.20;;;;;;;;;;5009061;28;20127;-68
2024/02/04 02:25:16;;;;;;;13.07;8.23;;;;;;;;;;5011997;28;20129;-69
2024/02/04 02:27:48;;;;;;;17.38;8.82;;;;;;;;;;5003616;28;20057;-69
2024/02/04 02:30:13;;;;;;;12.55;7.03;;;;;;;;;;5007684;28;20026;-68
2024/02/04 02:32:39;;;;;;;16.83;8.70;;;;;;;;;;5008130;28;20033;-69
2024/02/04 02:35:04;;;;;;;21.65;10.60;;;;;;;;;;4997416;28;20502;-68
2024/02/04 02:37:45;;;;;;;18.15;9.85;;;;;;;;;;5009289;28;20022;-68
2024/02/04 02:40:21;;;;;;;24.92;15.52;;;;;;;;;;5013004;28;20037;-68
2024/02/04 02:42:46;;;;;;;17.88;9.73;;;;;;;;;;5009455;28;20756;-68
2024/02/04 02:45:12;;;;;;;18.67;10.40;;;;;;;;;;5006459;28;20029;-68
2024/02/04 02:47:38;;;;;;;21.10;11.50;;;;;;;;;;4999678;28;20072;-68
2024/02/04 02:50:05;;;;;;;20.98;10.10;;;;;;;;;;5006813;28;20029;-68
2024/02/04 02:52:30;;;;;;;21.63;12.05;;;;;;;;;;5005608;28;20049;-68
2024/02/04 02:54:55;;;;;;;24.63;13.97;;;;;;;;;;4999526;28;20312;-68
2024/02/04 02:57:20;;;;;;;23.38;10.63;;;;;;;;;;5009537;28;20304;-68
2024/02/04 02:59:45;;;;;;;30.00;12.63;;;;;;;;;;4998317;28;20029;-68
2024/02/04 03:02:13;;;;;;;22.73;11.83;;;;;;;;;;5008448;28;20485;-68
2024/02/04 03:04:38;;;;;;;26.00;12.70;;;;;;;;;;5008251;28;20272;-69
2024/02/04 03:07:04;;;;;;;22.00;13.27;;;;;;;;;;5001911;28;20018;-68
2024/02/04 03:09:29;;;;;;;28.40;13.05;;;;;;;;;;4999981;28;20014;-68
2024/02/04 03:11:54;;;;;;;23.07;9.57;;;;;;;;;;5002128;28;20065;-69
2024/02/04 03:14:19;;;;;;;21.40;9.73;;;;;;;;;;5007127;28;20775;-69
2024/02/04 03:16:45;;;;;;;18.20;9.83;;;;;;;;;;5008016;28;20034;-68
2024/02/04 03:19:10;;;;;;;23.33;10.15;;;;;;;;;;5008946;28;20268;-68
2024/02/04 03:21:35;;;;;;;21.10;9.63;;;;;;;;;;4999793;28;20064;-68
2024/02/04 03:24:00;;;;;;;19.87;9.57;;;;;;;;;;5006119;28;20026;-68
2024/02/04 03:26:25;;;;;;;21.93;9.27;;;;;;;;;;5006132;28;20289;-68
2024/02/04 03:28:51;;;;;;;20.63;10.10;;;;;;;;;;5002167;28;20271;-68
2024/02/04 03:31:19;;;;;;;27.00;13.17;;;;;;;;;;5001563;28;20269;-69
2024/02/04 03:33:44;;;;;;;23.90;10.00;;;;;;;;;;5003350;28;20260;-68
2024/02/04 03:36:10;;;;;;;20.93;10.30;;;;;;;;;;5002042;28;20030;-68
2024/02/04 03:38:35;;;;;;;15.45;8.35;;;;;;;;;;5006304;28;20287;-68
2024/02/04 03:41:00;;;;;;;18.17;8.57;;;;;;;;;;5007843;28;20541;-68
2024/02/04 03:43:25;;;;;;;16.03;8.47;;;;;;;;;;5003735;28;20278;-68
2024/02/04 03:45:50;;;;;;;20.80;9.80;;;;;;;;;;5002535;28;20396;-68
2024/02/04 03:48:15;;;;;;;18.53;8.70;;;;;;;;;;5005308;28;20771;-68
2024/02/04 03:50:41;;;;;;;22.77;9.57;;;;;;;;;;5009883;28;20257;-69
2024/02/04 03:53:06;;;;;;;19.30;10.30;;;;;;;;;;5005682;28;20256;-68
2024/02/04 03:55:32;;;;;;;18.42;8.43;;;;;;;;;;5005378;28;20022;-68
2024/02/04 03:57:57;;;;;;;16.60;8.53;;;;;;;;;;5009988;28;20038;-68
2024/02/04 04:00:22;;;;;;;18.17;8.43;;;;;;;;;;5008147;28;20272;-68
2024/02/04 04:02:47;;;;;;;14.85;7.25;;;;;;;;;;5009965;28;20049;-68
2024/02/04 04:05:13;;;;;;;16.85;9.00;;;;;;;;;;5005379;28;20447;-68
2024/02/04 04:07:38;;;;;;;12.38;6.90;;;;;;;;;;5010594;28;20018;-68
2024/02/04 04:10:04;;;;;;;15.55;7.72;;;;;;;;;;5011213;28;20404;-68
2024/02/04 04:12:29;;;;;;;12.70;6.35;;;;;;;;;;5003783;28;20077;-68
2024/02/04 04:14:54;;;;;;;15.00;8.20;;;;;;;;;;5006955;28;20770;-68
2024/02/04 04:17:19;;;;;;;15.83;8.47;;;;;;;;;;5003577;28;20257;-68
2024/02/04 04:19:45;;;;;;;11.75;6.30;;;;;;;;;;5005132;28;20783;-68
2024/02/04 04:22:10;;;;;;;12.90;7.43;;;;;;;;;;5003937;28;20461;-68
2024/02/04 04:24:35;;;;;;;11.50;6.45;;;;;;;;;;5004921;28;20261;-68
2024/02/04 04:27:00;;;;;;;15.07;6.05;;;;;;;;;;5000443;28;20018;-68
2024/02/04 04:29:26;;;;;;;10.40;5.60;;;;;;;;;;5009491;28;20385;-68
2024/02/04 04:31:52;;;;;;;14.40;7.63;;;;;;;;;;5010287;28;20524;-69
2024/02/04 04:34:19;;;;;;;13.68;5.85;;;;;;;;;;5004462;28;20019;-68
2024/02/04 04:36:44;;;;;;;11.77;5.85;;;;;;;;;;5008468;28;20528;-68
2024/02/04 04:39:09;;;;;;;11.63;5.80;;;;;;;;;;5005949;28;20122;-68
2024/02/04 04:41:35;;;;;;;11.20;5.72;;;;;;;;;;5003234;28;20018;-69
2024/02/04 04:44:01;;;;;;;9.57;6.07;;;;;;;;;;5001796;28;20109;-68
2024/02/04 04:46:26;;;;;;;9.70;6.00;;;;;;;;;;5002524;28;20037;-68
2024/02/04 04:48:52;;;;;;;9.63;7.10;;;;;;;;;;5006890;28;20045;-68
2024/02/04 04:51:17;;;;;;;11.52;5.00;;;;;;;;;;5010585;28;20339;-68
2024/02/04 04:53:42;;;;;;;7.18;4.47;;;;;;;;;;5009891;28;20504;-68
2024/02/04 04:56:07;;;;;;;8.10;4.63;;;;;;;;;;5004111;28;20021;-68
2024/02/04 04:58:33;;;;;;;8.17;4.80;;;;;;;;;;5007312;28;20151;-68
2024/02/04 05:00:58;;;;;;;10.57;5.70;;;;;;;;;;5007655;28;20262;-68
2024/02/04 05:03:23;;;;;;;9.63;4.82;;;;;;;;;;4999366;28;20292;-68
2024/02/04 05:05:48;;;;;;;8.45;4.18;;;;;;;;;;5005684;28;20034;-68
2024/02/04 05:08:14;;;;;;;12.27;6.10;;;;;;;;;;5004935;28;20101;-68
2024/02/04 05:10:39;;;;;;;13.43;6.28;;;;;;;;;;5008418;28;20081;-68
2024/02/04 05:13:04;;;;;;;20.60;7.53;;;;;;;;;;5006085;28;20023;-68
2024/02/04 05:15:30;;;;;;;12.10;7.30;;;;;;;;;;4999209;28;20352;-68
2024/02/04 05:17:55;;;;;;;18.55;8.13;;;;;;;;;;5006075;28;20033;-68
2024/02/04 05:20:20;;;;;;;13.02;6.25;;;;;;;;;;5006557;28;20025;-68
2024/02/04 05:22:45;;;;;;;15.02;8.88;;;;;;;;;;5001952;28;20504;-68
2024/02/04 05:25:11;;;;;;;16.37;8.30;;;;;;;;;;5007164;28;20017;-68
2024/02/04 05:27:36;;;;;;;15.73;7.43;;;;;;;;;;5005594;28;20744;-68
2024/02/04 05:30:02;;;;;;;21.58;9.75;;;;;;;;;;5003321;28;20053;-68
2024/02/04 05:32:27;;;;;;;14.88;8.55;;;;;;;;;;4998299;28;20022;-68
2024/02/04 05:34:52;;;;;;;17.63;7.73;;;;;;;;;;5006065;28;20038;-68
2024/02/04 05:37:17;;;;;;;18.80;9.50;;;;;;;;;;4997112;28;20329;-69
2024/02/04 05:39:42;;;;;;;16.42;8.88;;;;;;;;;;5002690;28;20249;-68
2024/02/04 05:42:08;;;;;;;18.70;9.87;;;;;;;;;;5005331;28;20022;-68
2024/02/04 05:44:33;;;;;;;16.63;8.98;;;;;;;;;;5007313;28;20285;-68
2024/02/04 05:46:58;;;;;;;18.92;8.85;;;;;;;;;;5000048;28;20529;-68
2024/02/04 05:49:23;;;;;;;23.77;9.20;;;;;;;;;;5002537;28;20603;-68
2024/02/04 05:51:49;;;;;;;20.03;10.47;;;;;;;;;;5007189;28;20256;-68
2024/02/04 05:54:14;;;;;;;24.27;9.65;;;;;;;;;;5006357;28;20265;-68
2024/02/04 05:56:39;;;;;;;24.40;11.00;;;;;;;;;;5009544;28;20014;-68
2024/02/04 05:59:05;;;;;;;23.10;10.93;;;;;;;;;;5010265;28;20033;-68
2024/02/04 06:01:30;;;;;;;20.48;10.40;;;;;;;;;;5007145;28;20073;-68
2024/02/04 06:03:55;;;;;;;24.88;10.85;;;;;;;;;;4998135;28;20034;-68
2024/02/04 06:06:20;;;;;;;18.57;9.53;;;;;;;;;;5005229;28;20026;-68
2024/02/04 06:08:46;;;;;;;23.03;10.10;;;;;;;;;;5007253;28;20743;-68
2024/02/04 06:11:12;;;;;;;11.63;6.05;;;;;;;;;;5011009;28;20267;-68
2024/02/04 06:13:39;;;;;;;13.40;5.60;;;;;;;;;;5002504;28;20014;-69
2024/02/04 06:16:04;;;;;;;16.85;7.95;;;;;;;;;;5008111;28;20029;-68
2024/02/04 06:18:29;;;;;;;19.13;8.20;;;;;;;;;;5003641;28;20026;-68
2024/02/04 06:20:54;;;;;;;9.75;4.88;;;;;;;;;;5003056;28;20098;-68
2024/02/04 06:23:20;;;;;;;12.43;5.10;;;;;;;;;;5003826;28;20553;-68
2024/02/04 06:25:45;;;;;;;10.80;6.53;;;;;;;;;;5004178;28;20304;-68
2024/02/04 06:28:10;;;;;;;7.20;3.63;;;;;;;;;;5006261;28;20256;-68
2024/02/04 06:30:35;;;;;;;11.40;6.45;;;;;;;;;;5005715;28;20021;-68
2024/02/04 06:33:01;;;;;;;6.82;3.22;;;;;;;;;;5010801;28;20040;-68
2024/02/04 06:35:26;;;;;;;9.88;4.18;;;;;;;;;;5007453;28;20096;-68
2024/02/04 06:37:51;;;;;;;7.88;3.83;;;;;;;;;;5009341;28;20076;-68
2024/02/04 06:40:16;;;;;;;10.37;4.60;;;;;;;;;;5007752;28;20147;-68
2024/02/04 06:42:42;;;;;;;11.80;3.63;;;;;;;;;;5011615;28;20648;-68
2024/02/04 06:45:07;;;;;;;5.13;3.03;;;;;;;;;;4998934;28;20489;-68
2024/02/04 06:47:32;;;;;;;11.63;4.53;;;;;;;;;;5007813;28;20280;-68
2024/02/04 06:49:57;;;;;;;11.75;5.03;;;;;;;;;;5005787;28;20018;-68
2024/02/04 06:52:22;;;;;;;5.28;2.50;;;;;;;;;;5007341;28;20026;-68
2024/02/04 06:54:48;;;;;;;4.13;1.70;;;;;;;;;;4999961;28;20017;-68
2024/02/04 06:57:13;;;;;;;12.00;5.25;;;;;;;;;;5009088;28;20744;-68
2024/02/04 06:59:38;;;;;;;7.10;2.88;;;;;;;;;;5001751;28;20045;-68
2024/02/04 07:02:03;;;;;;;8.35;5.03;;;;;;;;;;5004677;28;20026;-68
2024/02/04 07:04:29;;;;;;;13.23;6.00;;;;;;;;;;5009830;28;20026;-68
2024/02/04 07:06:54;;;;;;;12.20;5.83;;;;;;;;;;5011541;28;20269;-68
2024/02/04 07:09:19;;;;;;;8.63;4.75;;;;;;;;;;5007468;28;20289;-68
2024/02/04 07:11:44;;;;;;;4.03;2.20;;;;;;;;;;5007022;28;20092;-68
2024/02/04 07:14:09;;;;;;;4.88;2.33;;;;;;;;;;5012113;28;20473;-68
2024/02/04 07:16:35;;;;;;;4.82;2.83;;;;;;;;;;5003649;28;20104;-68
2024/02/04 07:19:00;;;;;;;5.53;3.30;;;;;;;;;;5000279;28;20088;-68
2024/02/04 07:21:25;;;;;;;8.00;2.92;;;;;;;;;;5007204;28;20033;-68
2024/02/04 07:23:50;;;;;;;5.93;2.97;;;;;;;;;;5006867;28;20045;-68
2024/02/04 07:26:16;;;;;;;3.72;1.23;;;;;;;;;;5008573;28;20330;-68
2024/02/04 07:28:41;;;;;;;5.22;3.05;;;;;;;;;;5006315;28;20056;-68
2024/02/04 07:31:06;;;;;;;7.65;2.65;;;;;;;;;;5007868;28;20046;-68
2024/02/04 07:33:31;;;;;;;2.90;1.40;;;;;;;;;;5005911;28;20442;-68
2024/02/04 07:35:56;;;;;;;3.55;1.67;;;;;;;;;;5003994;28;20268;-68
2024/02/04 07:38:21;;;;;;;3.97;2.00;;;;;;;;;;5010031;28;20034;-68
2024/02/04 07:40:47;;;;;;;2.07;1.33;;;;;;;;;;5010346;28;20261;-68
2024/02/04 07:43:12;;;;;;;2.63;1.20;;;;;;;;;;5002937;28;20315;-68
2024/02/04 07:45:37;;;;;;;0.75;0.57;;;;;;;;;;5008304;28;20284;-68
2024/02/04 07:48:03;;;;;;;0.63;0.63;;;;;;;;;;5000445;28;20026;-68
2024/02/04 07:50:28;;;;;;;2.13;1.30;;;;;;;;;;5004889;28;20014;-68
2024/02/04 07:52:53;;;;;;;1.70;1.23;;;;;;;;;;5009488;28;20026;-68
2024/02/04 07:55:18;;;;;;;1.05;0.80;;;;;;;;;;5007566;28;20260;-68
2024/02/04 07:57:44;;;;;;;1.20;0.83;;;;;;;;;;5004832;28;20550;-68
2024/02/04 08:00:10;;;;;;;1.10;0.60;;;;;;;;;;4998302;28;20269;-68
2024/02/04 08:02:35;;;;;;;2.28;1.33;;;;;;;;;;5010975;28;20026;-68
2024/02/04 08:05:01;;;;;;;1.75;1.08;;;;;;;;;;5003643;28;20034;-68
2024/02/04 08:07:26;;;;;;;2.00;0.93;;;;;;;;;;5003678;28;20100;-68
2024/02/04 08:09:52;;;;;;;2.10;1.13;;;;;;;;;;5011149;28;20417;-68
2024/02/04 08:12:17;;;;;;;1.10;0.70;;;;;;;;;;5010935;28;20360;-68
2024/02/04 08:14:42;;;;;;;2.03;1.40;;;;;;;;;;5006536;28;20101;-68
2024/02/04 08:17:07;;;;;;;3.60;1.60;;;;;;;;;;5005476;28;20384;-68
2024/02/04 08:19:33;;;;;;;2.70;1.33;;;;;;;;;;5011577;28;20265;-68
2024/02/04 08:21:58;;;;;;;5.25;2.88;;;;;;;;;;5005148;28;20332;-68
2024/02/04 08:24:24;;;;;;;2.97;2.20;;;;;;;;;;5004016;28;20030;-68
2024/02/04 08:26:49;;;;;;;1.80;1.00;;;;;;;;;;5006255;28;20021;-69
2024/02/04 08:29:14;;;;;;;2.73;1.80;;;;;;;;;;5001337;28;20050;-68
2024/02/04 08:31:39;;;;;;;3.03;1.90;;;;;;;;;;5001074;28;20245;-68
2024/02/04 08:34:05;;;;;;;4.45;2.95;;;;;;;;;;5001592;28;20014;-68
2024/02/04 08:36:30;;;;;;;3.08;1.23;;;;;;;;;;5008170;28;20459;-68
2024/02/04 08:38:56;;;;;;;7.80;4.45;;;;;;;;;;5002946;28;20408;-68
2024/02/04 08:41:21;;;;;;;8.45;4.95;;;;;;;;;;5003327;28;20041;-68
2024/02/04 08:43:46;;;;;;;6.97;4.63;;;;;;;;;;5000716;28;20038;-68
2024/02/04 08:46:11;;;;;;;8.43;4.53;;;;;;;;;;5000585;28;20399;-68
2024/02/04 08:48:37;;;;;;;7.93;4.40;;;;;;;;;;5005664;28;20018;-68
2024/02/04 08:51:02;;;;;;;11.52;5.53;;;;;;;;;;5007022;28;20683;-68
2024/02/04 08:53:27;;;;;;;11.13;5.75;;;;;;;;;;5004656;28;20022;-68
2024/02/04 08:55:53;;;;;;;12.00;7.20;;;;;;;;;;5003392;28;20034;-68
2024/02/04 08:58:18;;;;;;;9.43;5.15;;;;;;;;;;5002948;28;20292;-68
2024/02/04 09:00:43;;;;;;;11.60;6.13;;;;;;;;;;5009508;28;21350;-68
2024/02/04 09:03:08;;;;;;;13.77;6.55;;;;;;;;;;5003424;28;20029;-68
2024/02/04 09:05:34;;;;;;;13.18;6.45;;;;;;;;;;5001122;28;20030;-68
2024/02/04 09:07:59;;;;;;;10.50;6.47;;;;;;;;;;4999465;28;20026;-68
2024/02/04 09:10:24;;;;;;;11.55;6.25;;;;;;;;;;5004269;28;20030;-68
2024/02/04 09:12:49;;;;;;;12.67;5.17;;;;;;;;;;4999747;28;20441;-68
2024/02/04 09:15:15;;;;;;;10.93;5.05;;;;;;;;;;4997062;28;20356;-68
2024/02/04 09:17:40;;;;;;;13.18;5.18;;;;;;;;;;5006319;28;20329;-68
2024/02/04 09:20:06;;;;;;;8.90;5.53;;;;;;;;;;5003885;28;20022;-69
2024/02/04 09:22:31;;;;;;;8.38;4.05;;;;;;;;;;5009215;28;20029;-68
2024/02/04 09:24:56;;;;;;;8.27;2.80;;;;;;;;;;5006172;28;20148;-68
2024/02/04 09:27:21;;;;;;;4.55;3.03;;;;;;;;;;5005835;28;20061;-68
2024/02/04 09:29:47;;;;;;;7.78;4.82;;;;;;;;;;5005918;28;20370;-68
2024/02/04 09:32:12;;;;;;;9.10;4.78;;;;;;;;;;5004446;28;20021;-68
2024/02/04 09:34:37;;;;;;;6.65;3.92;;;;;;;;;;5009307;28;20416;-68
2024/02/04 09:37:02;;;;;;;6.43;4.10;;;;;;;;;;5009264;28;20041;-68
2024/02/04 09:39:29;;;;;;;6.90;3.55;;;;;;;;;;5009085;28;20730;-68
2024/02/04 09:41:54;;;;;;;2.83;2.00;;;;;;;;;;5007874;28;20032;-68
2024/02/04 09:44:21;;;;;;;5.65;2.28;;;;;;;;;;5005760;28;20025;-68
2024/02/04 09:46:46;;;;;;;8.05;2.03;;;;;;;;;;5008803;28;20038;-68
2024/02/04 09:49:12;;;;;;;2.37;1.60;;;;;;;;;;5002547;28;20029;-69
2024/02/04 09:51:39;;;;;;;3.47;1.52;;;;;;;;;;5005824;28;20256;-68
2024/02/04 09:54:06;;;;;;;4.35;2.30;;;;;;;;;;5003719;28;20531;-68
2024/02/04 09:56:32;;;;;;;2.47;1.15;;;;;;;;;;5002751;28;20454;-68
2024/02/04 09:58:58;;;;;;;5.07;3.08;;;;;;;;;;5003049;28;20026;-68
2024/02/04 10:01:23;;;;;;;6.93;3.30;;;;;;;;;;5007812;28;20362;-68
2024/02/04 10:03:48;;;;;;;4.97;2.63;;;;;;;;;;5004074;28;20432;-68
2024/02/04 10:06:13;;;;;;;6.88;3.30;;;;;;;;;;5005643;28;20022;-68
2024/02/04 10:08:39;;;;;;;3.75;2.08;;;;;;;;;;5007823;28;20435;-68
2024/02/04 10:11:04;;;;;;;6.88;2.75;;;;;;;;;;5002760;28;20022;-68
2024/02/04 10:13:29;;;;;;;4.03;2.33;;;;;;;;;;5008601;28;20053;-69
2024/02/04 10:15:54;;;;;;;5.35;3.55;;;;;;;;;;5005046;28;20026;-68
2024/02/04 10:18:20;;;;;;;6.70;3.53;;;;;;;;;;5003996;28;20026;-68
2024/02/04 10:20:45;;;;;;;9.65;4.57;;;;;;;;;;5003745;28;20021;-68
2024/02/04 10:23:10;;;;;;;8.00;3.90;;;;;;;;;;5000246;28;20032;-68
2024/02/04 10:25:35;;;;;;;9.90;4.10;;;;;;;;;;5008186;28;20612;-68
2024/02/04 10:28:01;;;;;;;8.25;4.00;;;;;;;;;;5004159;28;20260;-68
2024/02/04 10:30:26;;;;;;;4.85;2.58;;;;;;;;;;5006070;28;20030;-68
2024/02/04 10:32:51;;;;;;;5.22;2.97;;;;;;;;;;5002302;28;20030;-68
2024/02/04 10:35:20;;;;;;;6.88;2.88;;;;;;;;;;5005500;28;20096;-68
2024/02/04 10:37:45;;;;;;;9.68;4.00;;;;;;;;;;5004824;28;20009;-68
2024/02/04 10:40:11;;;;;;;5.93;3.30;;;;;;;;;;5007609;28;20428;-68
2024/02/04 10:42:38;;;;;;;8.10;4.13;;;;;;;;;;5009162;28;20507;-68
2024/02/04 10:45:06;;;;;;;12.50;6.20;;;;;;;;;;5005084;28;20015;-68
2024/02/04 10:47:32;;;;;;;13.27;5.45;;;;;;;;;;5012076;28;20026;-68
2024/02/04 10:49:58;;;;;;;8.52;3.90;;;;;;;;;;5008160;28;20039;-68
2024/02/04 10:52:26;;;;;;;5.35;2.50;;;;;;;;;;5007570;28;20579;-69
2024/02/04 10:54:52;;;;;;;7.50;3.58;;;;;;;;;;5010112;28;20518;-68
2024/02/04 10:57:21;;;;;;;10.30;3.33;;;;;;;;;;5007413;28;20030;-68
2024/02/04 10:59:47;;;;;;;6.63;2.83;;;;;;;;;;5007076;28;20018;-68
2024/02/04 11:02:14;;;;;;;7.75;3.33;;;;;;;;;;5004717;28;20420;-68
2024/02/04 11:04:40;;;;;;;9.30;3.83;;;;;;;;;;5008669;28;20037;-68
2024/02/04 11:07:06;;;;;;;8.90;4.03;;;;;;;;;;5012577;28;20377;-68
2024/02/04 11:09:31;;;;;;;9.20;4.07;;;;;;;;;;5008325;28;20017;-68
2024/02/04 11:11:58;;;;;;;11.95;3.58;;;;;;;;;;5004144;28;20013;-68
2024/02/04 11:14:23;;;;;;;6.18;3.35;;;;;;;;;;5012310;28;20029;-69
2024/02/04 11:17:12;;;;;;;6.07;2.50;;;;;;;;;;5007090;28;20477;-68
2024/02/04 11:19:46;;;;;;;2.55;1.38;;;;;;;;;;5001379;28;20026;-68
2024/02/04 11:22:12;;;;;;;7.25;2.67;;;;;;;;;;5004162;28;20554;-69
2024/02/04 11:24:40;;;;;;;5.38;2.50;;;;;;;;;;5002311;28;20069;-69
2024/02/04 11:27:05;;;;;;;2.95;1.70;;;;;;;;;;5005590;28;20014;-69
2024/02/04 11:29:31;;;;;;;1.58;1.10;;;;;;;;;;5011650;28;20366;-69
2024/02/04 11:31:56;;;;;;;2.80;1.65;;;;;;;;;;5009848;28;20045;-69
2024/02/04 11:34:22;;;;;;;6.32;1.20;;;;;;;;;;5008062;28;20068;-69
2024/02/04 11:36:47;;;;;;;3.33;1.90;;;;;;;;;;5010872;28;20381;-69
2024/02/04 11:39:16;;;;;;;4.40;2.93;;;;;;;;;;5011841;28;20041;-70
2024/02/04 11:41:46;;;;;;;8.98;2.15;;;;;;;;;;5009359;28;20323;-69
2024/02/04 11:44:12;;;;;;;5.20;2.65;;;;;;;;;;5007995;28;20013;-69
2024/02/04 11:46:37;;;;;;;3.85;2.25;;;;;;;;;;5006850;28;20092;-69
2024/02/04 11:49:03;;;;;;;7.38;3.92;;;;;;;;;;5010229;28;20018;-69
2024/02/04 11:51:28;;;;;;;5.40;3.28;;;;;;;;;;5004019;28;20444;-69
2024/02/04 11:53:54;;;;;;;5.60;3.23;;;;;;;;;;5001061;28;20113;-69
2024/02/04 11:56:19;;;;;;;5.03;2.92;;;;;;;;;;5004642;28;20273;-69
2024/02/04 11:58:45;;;;;;;9.27;3.42;;;;;;;;;;5011224;28;20385;-69
2024/02/04 12:01:11;;;;;;;8.55;3.55;;;;;;;;;;5004245;28;20389;-70
2024/02/04 12:03:36;;;;;;;7.05;3.92;;;;;;;;;;5002995;28;20025;-69
2024/02/04 12:06:02;;;;;;;3.17;2.47;;;;;;;;;;5005038;28;20053;-69
2024/02/04 12:08:28;;;;;;;6.28;3.63;;;;;;;;;;5000292;28;20069;-69
2024/02/04 12:10:54;;;;;;;4.65;2.72;;;;;;;;;;5008626;28;20477;-70
2024/02/04 12:13:21;;;;;;;5.55;3.10;;;;;;;;;;5001102;28;20057;-69
2024/02/04 12:15:47;;;;;;;6.70;2.60;;;;;;;;;;5006991;28;20055;-69
2024/02/04 12:18:14;;;;;;;4.95;1.98;;;;;;;;;;5004045;28;20018;-69
2024/02/04 12:20:39;;;;;;;3.58;2.00;;;;;;;;;;4999801;28;20026;-69
2024/02/04 12:23:05;;;;;;;3.95;1.92;;;;;;;;;;5002824;28;20391;-69
2024/02/04 12:25:31;;;;;;;5.70;2.30;;;;;;;;;;5004839;28;20045;-68
2024/02/04 12:27:59;;;;;;;6.65;2.17;;;;;;;;;;5002171;28;20022;-69
2024/02/04 12:30:26;;;;;;;4.85;1.85;;;;;;;;;;5001377;28;20026;-68
2024/02/04 12:33:01;;;;;;;5.10;2.47;;;;;;;;;;5001148;28;20235;-68
2024/02/04 12:35:30;;;;;;;6.05;2.55;;;;;;;;;;5001318;28;20037;-68
2024/02/04 12:37:56;;;;;;;3.90;1.95;;;;;;;;;;5001376;28;20036;-68
2024/02/04 12:40:25;;;;;;;8.15;3.75;;;;;;;;;;5000571;28;20053;-68
2024/02/04 12:42:53;;;;;;;8.10;2.78;;;;;;;;;;5003178;28;20112;-69
2024/02/04 12:45:18;;;;;;;9.20;3.70;;;;;;;;;;5000251;28;20024;-68
2024/02/04 12:47:43;;;;;;;8.55;3.72;;;;;;;;;;5002825;28;20025;-68
2024/02/04 12:50:12;;;;;;;2.10;1.23;;;;;;;;;;4999746;28;20018;-68
2024/02/04 12:52:39;;;;;;;5.40;2.88;;;;;;;;;;5002847;28;20257;-68
2024/02/04 12:55:04;;;;;;;5.88;1.40;;;;;;;;;;5003778;28;20026;-68
2024/02/04 12:57:31;;;;;;;5.45;2.10;;;;;;;;;;4999222;28;20474;-68
2024/02/04 13:00:08;;;;;;;6.43;3.10;;;;;;;;;;4999224;28;20021;-68
2024/02/04 13:02:34;;;;;;;6.53;3.50;;;;;;;;;;5002471;28;20427;-68
2024/02/04 13:04:59;;;;;;;7.78;3.28;;;;;;;;;;5000480;28;20532;-69
2024/02/04 13:07:24;;;;;;;3.53;2.07;;;;;;;;;;5002635;28;20054;-68
2024/02/04 13:09:57;;;;;;;5.97;1.38;;;;;;;;;;5000548;28;20264;-68
2024/02/04 13:12:22;;;;;;;2.50;1.50;;;;;;;;;;5006315;28;20032;-68
2024/02/04 13:14:48;;;;;;;3.20;1.90;;;;;;;;;;5007359;28;20041;-69
2024/02/04 13:17:13;;;;;;;4.53;2.88;;;;;;;;;;5006839;28;20277;-69
2024/02/04 13:19:38;;;;;;;3.05;1.38;;;;;;;;;;5004903;28;20057;-69
2024/02/04 13:22:04;;;;;;;4.82;2.58;;;;;;;;;;5003301;28;20440;-69
2024/02/04 13:24:30;;;;;;;11.88;5.35;;;;;;;;;;5023694;22;20448;-69
2024/02/04 13:26:55;;;;;;;5.85;2.63;;;;;;;;;;5009798;28;20017;-69
2024/02/04 13:29:20;;;;;;;14.50;4.90;;;;;;;;;;5008651;28;20018;-69
2024/02/04 13:31:45;;;;;;;4.38;2.75;;;;;;;;;;5003427;28;20030;-69
2024/02/04 13:34:10;;;;;;;6.20;3.37;;;;;;;;;;4995494;28;20382;-70
2024/02/04 13:36:36;;;;;;;6.17;2.80;;;;;;;;;;4982397;28;20372;-69
2024/02/04 13:39:01;;;;;;;5.55;2.60;;;;;;;;;;4981567;28;20273;-70
2024/02/04 13:41:26;;;;;;;5.53;3.17;;;;;;;;;;4989745;28;20019;-68
2024/02/04 13:43:51;;;;;;;4.05;2.58;;;;;;;;;;4990136;28;20034;-69
2024/02/04 13:46:16;;;;;;;1.67;1.20;;;;;;;;;;4979389;28;20031;-69
2024/02/04 13:48:42;;;;;;;2.10;1.75;;;;;;;;;;4987465;28;20287;-69
2024/02/04 13:51:07;;;;;;;4.33;2.50;;;;;;;;;;4986869;28;20026;-70
2024/02/04 13:53:34;;;;;;;7.85;3.05;;;;;;;;;;4984929;28;20752;-69
2024/02/04 13:55:59;;;;;;;10.52;4.10;;;;;;;;;;4990942;28;20025;-69
2024/02/04 13:58:24;;;;;;;10.32;5.47;;;;;;;;;;4981134;28;20023;-69
2024/02/04 14:00:50;;;;;;;15.57;6.45;;;;;;;;;;4984244;28;20022;-69
2024/02/04 14:03:15;;;;;;;7.78;5.03;;;;;;;;;;4989030;28;20031;-69
2024/02/04 14:05:40;;;;;;;14.52;4.93;;;;;;;;;;4987272;28;20029;-69
2024/02/04 14:08:06;;;;;;;6.45;3.47;;;;;;;;;;4983006;28;20034;-69
2024/02/04 14:10:31;;;;;;;7.65;3.78;;;;;;;;;;4980362;28;20042;-69
2024/02/04 14:12:56;;;;;;;8.00;4.38;;;;;;;;;;4983252;28;20034;-69
2024/02/04 14:15:22;;;;;;;10.20;3.20;;;;;;;;;;4989981;28;20035;-69
2024/02/04 14:17:47;;;;;;;3.22;2.33;;;;;;;;;;4990591;28;20316;-69
2024/02/04 14:20:13;;;;;;;5.50;3.25;;;;;;;;;;4985285;28;20050;-69
2024/02/04 14:22:39;;;;;;;9.02;2.65;;;;;;;;;;4985812;28;20083;-69
2024/02/04 14:25:05;;;;;;;8.20;4.32;;;;;;;;;;4991016;28;20035;-69
2024/02/04 14:27:30;;;;;;;4.00;2.42;;;;;;;;;;4991095;28;20018;-70
2024/02/04 14:29:55;;;;;;;2.97;1.75;;;;;;;;;;4991502;28;20031;-69